sensor_id;sensor_type;location;lat;lon;timestamp;temperature;humidity
1996;DHT22;38556;47.068;15.408;2022-09-02T00:01:11;18.00;99.90
1996;DHT22;38556;47.068;15.408;2022-09-02T00:03:38;17.90;99.90
1996;DHT22;38556;47.068;15.408;2022-09-02T00:06:08;17.70;99.90
1996;DHT22;38556;47.068;15.408;2022-09-02T00:08:35;17.80;99.90
1996;DHT22;38556;47.068;15.408;2022-09-02T00:11:03;17.90;99.90
1996;DHT22;38556;47.068;15.408;2022-09-02T00:13:32;17.90;99.90
1996;DHT22;38556;47.068;15.408;2022-09-02T00:15:59;17.80;99.90
1996;DHT22;38556;47.068;15.408;2022-09-02T00:18:27;17.80;99.90
1996;DHT22;38556;47.068;15.408;2022-09-02T00:20:54;18.00;99.90
1996;DHT22;38556;47.068;15.408;2022-09-02T00:23:25;18.00;99.90
1996;DHT22;38556;47.068;15.408;2022-09-02T00:25:52;17.90;99.90
1996;DHT22;38556;47.068;15.408;2022-09-02T00:28:19;17.90;99.90
1996;DHT22;38556;47.068;15.408;2022-09-02T00:30:47;17.90;99.90
1996;DHT22;38556;47.068;15.408;2022-09-02T00:33:14;18.00;99.90
1996;DHT22;38556;47.068;15.408;2022-09-02T00:35:42;17.90;99.90
1996;DHT22;38556;47.068;15.408;2022-09-02T00:38:09;17.90;99.90
1996;DHT22;38556;47.068;15.408;2022-09-02T00:40:39;18.00;99.90
1996;DHT22;38556;47.068;15.408;2022-09-02T00:43:10;18.20;99.90
1996;DHT22;38556;47.068;15.408;2022-09-02T00:45:37;18.30;99.90
1996;DHT22;38556;47.068;15.408;2022-09-02T00:48:04;18.30;99.90
1996;DHT22;38556;47.068;15.408;2022-09-02T00:50:34;18.20;99.90
1996;DHT22;38556;47.068;15.408;2022-09-02T00:53:05;18.30;99.90
1996;DHT22;38556;47.068;15.408;2022-09-02T00:55:39;18.30;99.90
1996;DHT22;38556;47.068;15.408;2022-09-02T00:58:09;18.40;99.90
1996;DHT22;38556;47.068;15.408;2022-09-02T01:00:42;18.40;99.90
1996;DHT22;38556;47.068;15.408;2022-09-02T01:03:12;18.40;99.90
1996;DHT22;38556;47.068;15.408;2022-09-02T01:05:44;18.50;99.90
1996;DHT22;38556;47.068;15.408;2022-09-02T01:08:12;18.40;99.90
1996;DHT22;38556;47.068;15.408;2022-09-02T01:10:45;18.40;99.90
1996;DHT22;38556;47.068;15.408;2022-09-02T01:13:15;18.50;99.90
1996;DHT22;38556;47.068;15.408;2022-09-02T01:15:46;18.50;99.90
1996;DHT22;38556;47.068;15.408;2022-09-02T01:18:17;18.50;99.90
1996;DHT22;38556;47.068;15.408;2022-09-02T01:20:45;18.50;99.90
1996;DHT22;38556;47.068;15.408;2022-09-02T01:23:15;18.50;99.90
1996;DHT22;38556;47.068;15.408;2022-09-02T01:25:43;18.50;99.90
1996;DHT22;38556;47.068;15.408;2022-09-02T01:28:13;18.60;99.90
1996;DHT22;38556;47.068;15.408;2022-09-02T01:30:43;18.60;99.90
1996;DHT22;38556;47.068;15.408;2022-09-02T01:33:12;18.60;99.90
1996;DHT22;38556;47.068;15.408;2022-09-02T01:35:39;18.60;99.90
1996;DHT22;38556;47.068;15.408;2022-09-02T01:38:07;18.60;99.90
1996;DHT22;38556;47.068;15.408;2022-09-02T01:40:36;18.60;99.90
1996;DHT22;38556;47.068;15.408;2022-09-02T01:43:06;18.50;99.90
1996;DHT22;38556;47.068;15.408;2022-09-02T01:45:34;18.40;99.90
1996;DHT22;38556;47.068;15.408;2022-09-02T01:48:02;18.40;99.90
1996;DHT22;38556;47.068;15.408;2022-09-02T01:50:31;18.50;99.90
1996;DHT22;38556;47.068;15.408;2022-09-02T01:52:58;18.50;99.90
1996;DHT22;38556;47.068;15.408;2022-09-02T01:55:29;18.40;99.90
1996;DHT22;38556;47.068;15.408;2022-09-02T01:57:58;18.40;99.90
1996;DHT22;38556;47.068;15.408;2022-09-02T02:00:26;18.50;99.90
1996;DHT22;38556;47.068;15.408;2022-09-02T02:02:53;18.50;99.90
1996;DHT22;38556;47.068;15.408;2022-09-02T02:05:21;18.60;99.90
1996;DHT22;38556;47.068;15.408;2022-09-02T02:07:49;18.60;99.90
1996;DHT22;38556;47.068;15.408;2022-09-02T02:10:18;18.60;99.90
1996;DHT22;38556;47.068;15.408;2022-09-02T02:12:46;18.60;99.90
1996;DHT22;38556;47.068;15.408;2022-09-02T02:15:18;18.60;99.90
1996;DHT22;38556;47.068;15.408;2022-09-02T02:17:46;18.60;99.90
1996;DHT22;38556;47.068;15.408;2022-09-02T02:20:14;18.50;99.90
1996;DHT22;38556;47.068;15.408;2022-09-02T02:22:42;18.60;99.90
1996;DHT22;38556;47.068;15.408;2022-09-02T02:25:12;18.50;99.90
1996;DHT22;38556;47.068;15.408;2022-09-02T02:27:40;18.50;99.90
1996;DHT22;38556;47.068;15.408;2022-09-02T02:30:09;18.40;99.90
1996;DHT22;38556;47.068;15.408;2022-09-02T02:32:39;18.40;99.90
1996;DHT22;38556;47.068;15.408;2022-09-02T02:35:08;18.40;99.90
1996;DHT22;38556;47.068;15.408;2022-09-02T02:37:35;18.40;99.90
1996;DHT22;38556;47.068;15.408;2022-09-02T02:40:05;18.40;99.90
1996;DHT22;38556;47.068;15.408;2022-09-02T02:42:32;18.30;99.90
1996;DHT22;38556;47.068;15.408;2022-09-02T02:45:00;18.30;99.90
1996;DHT22;38556;47.068;15.408;2022-09-02T02:47:28;18.30;99.90
1996;DHT22;38556;47.068;15.408;2022-09-02T02:49:57;18.30;99.90
1996;DHT22;38556;47.068;15.408;2022-09-02T02:52:24;18.30;99.90
1996;DHT22;38556;47.068;15.408;2022-09-02T02:54:51;18.30;99.90
1996;DHT22;38556;47.068;15.408;2022-09-02T02:57:19;18.00;99.90
1996;DHT22;38556;47.068;15.408;2022-09-02T02:59:46;17.90;99.90
1996;DHT22;38556;47.068;15.408;2022-09-02T03:02:15;17.90;99.90
1996;DHT22;38556;47.068;15.408;2022-09-02T03:04:42;18.10;99.90
1996;DHT22;38556;47.068;15.408;2022-09-02T03:07:11;18.10;99.90
1996;DHT22;38556;47.068;15.408;2022-09-02T03:09:39;18.20;99.90
1996;DHT22;38556;47.068;15.408;2022-09-02T03:12:07;18.20;99.90
1996;DHT22;38556;47.068;15.408;2022-09-02T03:14:34;18.20;99.90
1996;DHT22;38556;47.068;15.408;2022-09-02T03:17:03;18.20;99.90
1996;DHT22;38556;47.068;15.408;2022-09-02T03:19:30;18.30;99.90
1996;DHT22;38556;47.068;15.408;2022-09-02T03:21:57;18.30;99.90
1996;DHT22;38556;47.068;15.408;2022-09-02T03:24:26;18.30;99.90
1996;DHT22;38556;47.068;15.408;2022-09-02T03:26:54;18.30;99.90
1996;DHT22;38556;47.068;15.408;2022-09-02T03:29:21;18.20;99.90
1996;DHT22;38556;47.068;15.408;2022-09-02T03:31:49;18.20;99.90
1996;DHT22;38556;47.068;15.408;2022-09-02T03:34:17;18.20;99.90
1996;DHT22;38556;47.068;15.408;2022-09-02T03:36:44;18.20;99.90
1996;DHT22;38556;47.068;15.408;2022-09-02T03:39:13;18.10;99.90
1996;DHT22;38556;47.068;15.408;2022-09-02T03:41:41;18.10;99.90
1996;DHT22;38556;47.068;15.408;2022-09-02T03:44:09;18.00;99.90
1996;DHT22;38556;47.068;15.408;2022-09-02T03:46:37;18.10;99.90
1996;DHT22;38556;47.068;15.408;2022-09-02T03:49:04;18.10;99.90
1996;DHT22;38556;47.068;15.408;2022-09-02T03:51:31;18.10;99.90
1996;DHT22;38556;47.068;15.408;2022-09-02T03:53:59;18.10;99.90
1996;DHT22;38556;47.068;15.408;2022-09-02T03:56:29;18.00;99.90
1996;DHT22;38556;47.068;15.408;2022-09-02T03:58:59;18.00;99.90
1996;DHT22;38556;47.068;15.408;2022-09-02T04:01:26;18.00;99.90
1996;DHT22;38556;47.068;15.408;2022-09-02T04:03:54;18.00;99.90
1996;DHT22;38556;47.068;15.408;2022-09-02T04:06:23;18.00;99.90
1996;DHT22;38556;47.068;15.408;2022-09-02T04:08:51;17.90;99.90
1996;DHT22;38556;47.068;15.408;2022-09-02T04:11:20;17.90;99.90
1996;DHT22;38556;47.068;15.408;2022-09-02T04:13:49;17.90;99.90
1996;DHT22;38556;47.068;15.408;2022-09-02T04:16:19;17.90;99.90
1996;DHT22;38556;47.068;15.408;2022-09-02T04:18:48;17.90;99.90
1996;DHT22;38556;47.068;15.408;2022-09-02T04:21:15;17.90;99.90
1996;DHT22;38556;47.068;15.408;2022-09-02T04:23:43;17.80;99.90
1996;DHT22;38556;47.068;15.408;2022-09-02T04:26:12;17.90;99.90
1996;DHT22;38556;47.068;15.408;2022-09-02T04:28:40;17.70;99.90
1996;DHT22;38556;47.068;15.408;2022-09-02T04:31:10;17.70;99.90
1996;DHT22;38556;47.068;15.408;2022-09-02T04:33:40;17.70;99.90
1996;DHT22;38556;47.068;15.408;2022-09-02T04:36:09;17.70;99.90
1996;DHT22;38556;47.068;15.408;2022-09-02T04:38:37;17.70;99.90
1996;DHT22;38556;47.068;15.408;2022-09-02T04:41:06;17.70;99.90
1996;DHT22;38556;47.068;15.408;2022-09-02T04:43:34;17.70;99.90
1996;DHT22;38556;47.068;15.408;2022-09-02T04:46:03;17.60;99.90
1996;DHT22;38556;47.068;15.408;2022-09-02T04:48:31;17.60;99.90
1996;DHT22;38556;47.068;15.408;2022-09-02T04:51:05;17.70;99.90
1996;DHT22;38556;47.068;15.408;2022-09-02T04:53:32;17.70;99.90
1996;DHT22;38556;47.068;15.408;2022-09-02T04:56:02;17.70;99.90
1996;DHT22;38556;47.068;15.408;2022-09-02T04:58:30;17.70;99.90
1996;DHT22;38556;47.068;15.408;2022-09-02T05:00:57;17.70;99.90
1996;DHT22;38556;47.068;15.408;2022-09-02T05:03:29;17.80;99.90
1996;DHT22;38556;47.068;15.408;2022-09-02T05:05:58;17.70;99.90
1996;DHT22;38556;47.068;15.408;2022-09-02T05:08:26;17.80;99.90
1996;DHT22;38556;47.068;15.408;2022-09-02T05:10:54;17.70;99.90
1996;DHT22;38556;47.068;15.408;2022-09-02T05:13:22;17.70;99.90
1996;DHT22;38556;47.068;15.408;2022-09-02T05:15:50;17.40;99.90
1996;DHT22;38556;47.068;15.408;2022-09-02T05:18:17;17.60;99.90
1996;DHT22;38556;47.068;15.408;2022-09-02T05:20:44;17.70;99.90
1996;DHT22;38556;47.068;15.408;2022-09-02T05:23:12;17.70;99.90
1996;DHT22;38556;47.068;15.408;2022-09-02T05:25:42;17.60;99.90
1996;DHT22;38556;47.068;15.408;2022-09-02T05:28:09;17.80;99.90
1996;DHT22;38556;47.068;15.408;2022-09-02T05:30:38;17.90;99.90
1996;DHT22;38556;47.068;15.408;2022-09-02T05:33:07;17.90;99.90
1996;DHT22;38556;47.068;15.408;2022-09-02T05:35:39;18.00;99.90
1996;DHT22;38556;47.068;15.408;2022-09-02T05:38:06;17.90;99.90
1996;DHT22;38556;47.068;15.408;2022-09-02T05:40:35;17.60;99.90
1996;DHT22;38556;47.068;15.408;2022-09-02T05:43:05;17.50;99.90
1996;DHT22;38556;47.068;15.408;2022-09-02T05:48:00;17.60;99.90
1996;DHT22;38556;47.068;15.408;2022-09-02T05:50:48;21.40;99.90
1996;DHT22;38556;47.068;15.408;2022-09-02T05:53:15;17.20;99.90
1996;DHT22;38556;47.068;15.408;2022-09-02T05:55:43;17.40;99.90
1996;DHT22;38556;47.068;15.408;2022-09-02T05:58:14;17.40;99.90
1996;DHT22;38556;47.068;15.408;2022-09-02T06:00:42;17.30;99.90
1996;DHT22;38556;47.068;15.408;2022-09-02T06:08:05;18.20;99.90
1996;DHT22;38556;47.068;15.408;2022-09-02T06:10:33;18.40;99.90
1996;DHT22;38556;47.068;15.408;2022-09-02T06:13:00;18.40;99.90
1996;DHT22;38556;47.068;15.408;2022-09-02T06:15:29;18.40;99.90
1996;DHT22;38556;47.068;15.408;2022-09-02T06:17:56;18.40;99.90
1996;DHT22;38556;47.068;15.408;2022-09-02T06:20:25;18.40;99.90
1996;DHT22;38556;47.068;15.408;2022-09-02T06:22:53;18.40;99.90
1996;DHT22;38556;47.068;15.408;2022-09-02T06:25:21;18.50;99.90
1996;DHT22;38556;47.068;15.408;2022-09-02T06:27:48;18.40;99.90
1996;DHT22;38556;47.068;15.408;2022-09-02T06:30:16;18.50;99.90
1996;DHT22;38556;47.068;15.408;2022-09-02T06:32:44;18.50;99.90
1996;DHT22;38556;47.068;15.408;2022-09-02T06:35:12;18.70;99.90
1996;DHT22;38556;47.068;15.408;2022-09-02T06:37:40;18.80;99.90
1996;DHT22;38556;47.068;15.408;2022-09-02T06:40:08;19.00;99.90
1996;DHT22;38556;47.068;15.408;2022-09-02T06:42:36;18.80;99.90
1996;DHT22;38556;47.068;15.408;2022-09-02T06:45:04;18.90;99.90
1996;DHT22;38556;47.068;15.408;2022-09-02T06:47:31;19.00;99.90
1996;DHT22;38556;47.068;15.408;2022-09-02T06:50:00;19.20;99.90
1996;DHT22;38556;47.068;15.408;2022-09-02T06:52:29;19.50;99.90
1996;DHT22;38556;47.068;15.408;2022-09-02T06:54:56;19.50;99.90
1996;DHT22;38556;47.068;15.408;2022-09-02T06:57:23;19.60;99.90
1996;DHT22;38556;47.068;15.408;2022-09-02T06:59:51;19.60;99.90
1996;DHT22;38556;47.068;15.408;2022-09-02T07:02:19;19.60;99.90
1996;DHT22;38556;47.068;15.408;2022-09-02T07:04:46;19.70;99.90
1996;DHT22;38556;47.068;15.408;2022-09-02T07:07:33;19.70;99.90
1996;DHT22;38556;47.068;15.408;2022-09-02T07:10:00;19.80;99.90
1996;DHT22;38556;47.068;15.408;2022-09-02T07:12:28;19.80;99.90
1996;DHT22;38556;47.068;15.408;2022-09-02T07:14:56;19.70;99.90
1996;DHT22;38556;47.068;15.408;2022-09-02T07:17:23;19.70;99.90
1996;DHT22;38556;47.068;15.408;2022-09-02T07:19:51;19.80;99.90
1996;DHT22;38556;47.068;15.408;2022-09-02T07:22:21;18.90;99.90
1996;DHT22;38556;47.068;15.408;2022-09-02T07:24:49;18.90;99.90
1996;DHT22;38556;47.068;15.408;2022-09-02T07:27:17;19.10;99.90
1996;DHT22;38556;47.068;15.408;2022-09-02T07:29:45;19.30;99.90
1996;DHT22;38556;47.068;15.408;2022-09-02T07:32:14;19.50;99.90
1996;DHT22;38556;47.068;15.408;2022-09-02T07:34:41;19.80;99.90
1996;DHT22;38556;47.068;15.408;2022-09-02T07:37:09;19.80;99.90
1996;DHT22;38556;47.068;15.408;2022-09-02T07:39:37;19.30;99.90
1996;DHT22;38556;47.068;15.408;2022-09-02T07:42:06;19.40;99.90
1996;DHT22;38556;47.068;15.408;2022-09-02T07:44:33;19.60;99.90
1996;DHT22;38556;47.068;15.408;2022-09-02T07:47:02;19.90;99.90
1996;DHT22;38556;47.068;15.408;2022-09-02T07:49:31;19.90;99.90
1996;DHT22;38556;47.068;15.408;2022-09-02T07:51:59;19.90;99.90
1996;DHT22;38556;47.068;15.408;2022-09-02T07:54:26;20.00;99.90
1996;DHT22;38556;47.068;15.408;2022-09-02T07:56:57;20.20;99.90
1996;DHT22;38556;47.068;15.408;2022-09-02T08:01:54;20.20;99.90
1996;DHT22;38556;47.068;15.408;2022-09-02T08:04:21;20.10;99.90
1996;DHT22;38556;47.068;15.408;2022-09-02T08:06:50;19.80;99.90
1996;DHT22;38556;47.068;15.408;2022-09-02T08:09:18;19.80;99.90
1996;DHT22;38556;47.068;15.408;2022-09-02T08:11:47;20.00;99.90
1996;DHT22;38556;47.068;15.408;2022-09-02T08:16:46;20.40;99.90
1996;DHT22;38556;47.068;15.408;2022-09-02T08:19:13;20.50;99.90
1996;DHT22;38556;47.068;15.408;2022-09-02T08:21:41;20.50;99.90
1996;DHT22;38556;47.068;15.408;2022-09-02T08:24:08;20.50;99.90
1996;DHT22;38556;47.068;15.408;2022-09-02T08:26:36;20.60;99.90
1996;DHT22;38556;47.068;15.408;2022-09-02T08:29:05;20.80;99.90
1996;DHT22;38556;47.068;15.408;2022-09-02T08:31:35;20.60;99.90
1996;DHT22;38556;47.068;15.408;2022-09-02T08:34:04;20.60;99.90
1996;DHT22;38556;47.068;15.408;2022-09-02T08:36:32;20.80;99.90
1996;DHT22;38556;47.068;15.408;2022-09-02T08:39:01;20.50;99.90
1996;DHT22;38556;47.068;15.408;2022-09-02T08:41:33;20.60;99.90
1996;DHT22;38556;47.068;15.408;2022-09-02T08:44:03;20.00;96.90
1996;DHT22;38556;47.068;15.408;2022-09-02T08:46:32;20.10;99.20
1996;DHT22;38556;47.068;15.408;2022-09-02T08:49:05;20.10;99.60
1996;DHT22;38556;47.068;15.408;2022-09-02T08:51:37;20.10;99.00
1996;DHT22;38556;47.068;15.408;2022-09-02T08:54:12;19.90;97.00
1996;DHT22;38556;47.068;15.408;2022-09-02T08:56:43;20.00;96.90
1996;DHT22;38556;47.068;15.408;2022-09-02T08:59:10;20.10;97.00
1996;DHT22;38556;47.068;15.408;2022-09-02T09:01:45;20.20;97.90
1996;DHT22;38556;47.068;15.408;2022-09-02T09:04:36;20.30;97.60
1996;DHT22;38556;47.068;15.408;2022-09-02T09:07:19;20.40;98.40
1996;DHT22;38556;47.068;15.408;2022-09-02T09:09:57;20.60;95.50
1996;DHT22;38556;47.068;15.408;2022-09-02T09:12:39;20.60;94.60
1996;DHT22;38556;47.068;15.408;2022-09-02T09:15:12;20.70;95.30
1996;DHT22;38556;47.068;15.408;2022-09-02T09:17:44;20.70;95.60
1996;DHT22;38556;47.068;15.408;2022-09-02T09:20:18;20.80;95.60
1996;DHT22;38556;47.068;15.408;2022-09-02T09:22:47;20.90;95.10
1996;DHT22;38556;47.068;15.408;2022-09-02T09:25:16;20.90;94.90
1996;DHT22;38556;47.068;15.408;2022-09-02T09:27:44;20.80;94.70
1996;DHT22;38556;47.068;15.408;2022-09-02T09:30:12;20.80;93.80
1996;DHT22;38556;47.068;15.408;2022-09-02T09:32:42;20.80;93.40
1996;DHT22;38556;47.068;15.408;2022-09-02T09:35:12;20.90;93.40
1996;DHT22;38556;47.068;15.408;2022-09-02T09:37:43;21.10;94.40
1996;DHT22;38556;47.068;15.408;2022-09-02T09:40:32;21.30;92.80
1996;DHT22;38556;47.068;15.408;2022-09-02T09:43:11;21.20;92.80
1996;DHT22;38556;47.068;15.408;2022-09-02T09:45:41;21.00;93.30
1996;DHT22;38556;47.068;15.408;2022-09-02T09:48:23;21.20;93.80
1996;DHT22;38556;47.068;15.408;2022-09-02T09:51:12;21.60;93.40
1996;DHT22;38556;47.068;15.408;2022-09-02T09:53:44;21.70;93.80
1996;DHT22;38556;47.068;15.408;2022-09-02T09:56:29;21.50;93.50
1996;DHT22;38556;47.068;15.408;2022-09-02T09:58:57;21.60;93.90
1996;DHT22;38556;47.068;15.408;2022-09-02T10:01:28;21.20;93.50
1996;DHT22;38556;47.068;15.408;2022-09-02T10:03:57;21.20;93.70
1996;DHT22;38556;47.068;15.408;2022-09-02T10:06:36;20.80;93.40
1996;DHT22;38556;47.068;15.408;2022-09-02T10:09:27;20.80;93.60
1996;DHT22;38556;47.068;15.408;2022-09-02T10:11:57;21.00;93.30
1996;DHT22;38556;47.068;15.408;2022-09-02T10:14:31;21.00;91.90
1996;DHT22;38556;47.068;15.408;2022-09-02T10:17:07;20.70;92.80
1996;DHT22;38556;47.068;15.408;2022-09-02T10:19:39;20.80;93.40
1996;DHT22;38556;47.068;15.408;2022-09-02T10:22:32;21.00;93.20
1996;DHT22;38556;47.068;15.408;2022-09-02T10:25:11;21.20;92.70
1996;DHT22;38556;47.068;15.408;2022-09-02T10:27:51;21.00;92.40
1996;DHT22;38556;47.068;15.408;2022-09-02T10:30:22;21.00;91.70
1996;DHT22;38556;47.068;15.408;2022-09-02T10:33:09;21.20;92.50
1996;DHT22;38556;47.068;15.408;2022-09-02T10:35:42;21.50;92.50
1996;DHT22;38556;47.068;15.408;2022-09-02T10:38:31;21.80;92.20
1996;DHT22;38556;47.068;15.408;2022-09-02T10:41:08;21.50;92.60
1996;DHT22;38556;47.068;15.408;2022-09-02T10:43:56;21.70;96.90
1996;DHT22;38556;47.068;15.408;2022-09-02T10:46:25;22.20;95.20
1996;DHT22;38556;47.068;15.408;2022-09-02T10:49:02;22.30;95.50
1996;DHT22;38556;47.068;15.408;2022-09-02T10:51:41;22.40;93.00
1996;DHT22;38556;47.068;15.408;2022-09-02T10:54:20;22.00;93.90
1996;DHT22;38556;47.068;15.408;2022-09-02T10:56:57;22.00;95.00
1996;DHT22;38556;47.068;15.408;2022-09-02T10:59:31;21.90;93.30
1996;DHT22;38556;47.068;15.408;2022-09-02T11:02:04;22.00;92.90
1996;DHT22;38556;47.068;15.408;2022-09-02T11:04:38;22.90;92.20
1996;DHT22;38556;47.068;15.408;2022-09-02T11:07:08;20.60;91.90
1996;DHT22;38556;47.068;15.408;2022-09-02T11:09:43;22.60;93.50
1996;DHT22;38556;47.068;15.408;2022-09-02T11:14:55;22.60;90.40
1996;DHT22;38556;47.068;15.408;2022-09-02T11:17:32;22.80;92.50
1996;DHT22;38556;47.068;15.408;2022-09-02T11:20:06;22.70;90.50
1996;DHT22;38556;47.068;15.408;2022-09-02T11:22:41;22.90;90.80
1996;DHT22;38556;47.068;15.408;2022-09-02T11:25:13;22.90;90.50
1996;DHT22;38556;47.068;15.408;2022-09-02T11:27:47;23.10;90.20
1996;DHT22;38556;47.068;15.408;2022-09-02T11:30:19;22.80;90.60
1996;DHT22;38556;47.068;15.408;2022-09-02T11:32:51;22.80;91.40
1996;DHT22;38556;47.068;15.408;2022-09-02T11:35:22;22.80;91.70
1996;DHT22;38556;47.068;15.408;2022-09-02T11:37:56;22.90;91.80
1996;DHT22;38556;47.068;15.408;2022-09-02T11:40:29;23.00;91.50
1996;DHT22;38556;47.068;15.408;2022-09-02T11:43:14;23.00;91.90
1996;DHT22;38556;47.068;15.408;2022-09-02T11:49:25;23.20;91.70
1996;DHT22;38556;47.068;15.408;2022-09-02T11:52:20;23.00;91.20
1996;DHT22;38556;47.068;15.408;2022-09-02T11:55:00;23.30;91.60
1996;DHT22;38556;47.068;15.408;2022-09-02T11:57:30;22.80;88.90
1996;DHT22;38556;47.068;15.408;2022-09-02T12:00:11;22.70;88.90
1996;DHT22;38556;47.068;15.408;2022-09-02T12:02:42;22.80;90.30
1996;DHT22;38556;47.068;15.408;2022-09-02T12:05:49;22.80;88.70
1996;DHT22;38556;47.068;15.408;2022-09-02T12:08:56;23.10;90.00
1996;DHT22;38556;47.068;15.408;2022-09-02T12:11:47;23.40;90.70
1996;DHT22;38556;47.068;15.408;2022-09-02T12:21:05;23.70;85.90
1996;DHT22;38556;47.068;15.408;2022-09-02T12:27:06;24.00;88.20
1996;DHT22;38556;47.068;15.408;2022-09-02T12:29:34;23.90;86.20
1996;DHT22;38556;47.068;15.408;2022-09-02T12:32:01;24.10;85.70
1996;DHT22;38556;47.068;15.408;2022-09-02T12:34:54;24.50;86.20
1996;DHT22;38556;47.068;15.408;2022-09-02T12:37:50;24.40;83.90
1996;DHT22;38556;47.068;15.408;2022-09-02T12:40:33;24.30;83.90
1996;DHT22;38556;47.068;15.408;2022-09-02T12:45:33;24.00;82.60
1996;DHT22;38556;47.068;15.408;2022-09-02T12:48:10;24.00;85.10
1996;DHT22;38556;47.068;15.408;2022-09-02T12:50:55;23.80;84.00
1996;DHT22;38556;47.068;15.408;2022-09-02T12:53:33;23.70;83.60
1996;DHT22;38556;47.068;15.408;2022-09-02T12:56:04;23.50;82.10
1996;DHT22;38556;47.068;15.408;2022-09-02T12:58:36;23.40;84.10
1996;DHT22;38556;47.068;15.408;2022-09-02T13:04:16;23.90;85.60
1996;DHT22;38556;47.068;15.408;2022-09-02T13:10:10;23.90;86.00
1996;DHT22;38556;47.068;15.408;2022-09-02T13:13:26;23.70;85.90
1996;DHT22;38556;47.068;15.408;2022-09-02T13:16:10;23.90;85.70
1996;DHT22;38556;47.068;15.408;2022-09-02T13:22:11;23.80;82.10
1996;DHT22;38556;47.068;15.408;2022-09-02T13:25:10;23.80;83.10
1996;DHT22;38556;47.068;15.408;2022-09-02T13:27:59;24.10;83.90
1996;DHT22;38556;47.068;15.408;2022-09-02T13:30:40;24.60;84.60
1996;DHT22;38556;47.068;15.408;2022-09-02T13:33:18;24.80;81.50
1996;DHT22;38556;47.068;15.408;2022-09-02T13:35:52;25.00;79.90
1996;DHT22;38556;47.068;15.408;2022-09-02T13:38:24;25.00;82.40
1996;DHT22;38556;47.068;15.408;2022-09-02T13:40:52;25.50;80.80
1996;DHT22;38556;47.068;15.408;2022-09-02T13:43:21;25.50;79.70
1996;DHT22;38556;47.068;15.408;2022-09-02T13:45:52;25.50;81.50
1996;DHT22;38556;47.068;15.408;2022-09-02T13:48:21;25.70;81.70
1996;DHT22;38556;47.068;15.408;2022-09-02T13:50:50;25.80;82.80
1996;DHT22;38556;47.068;15.408;2022-09-02T13:53:25;25.70;81.00
1996;DHT22;38556;47.068;15.408;2022-09-02T13:55:55;25.60;80.70
1996;DHT22;38556;47.068;15.408;2022-09-02T13:58:32;25.50;81.00
1996;DHT22;38556;47.068;15.408;2022-09-02T14:01:17;26.00;80.80
1996;DHT22;38556;47.068;15.408;2022-09-02T14:03:45;26.20;81.50
1996;DHT22;38556;47.068;15.408;2022-09-02T14:08:44;26.40;78.00
1996;DHT22;38556;47.068;15.408;2022-09-02T14:11:14;26.30;79.20
1996;DHT22;38556;47.068;15.408;2022-09-02T14:13:45;26.00;77.80
1996;DHT22;38556;47.068;15.408;2022-09-02T14:16:30;25.70;77.10
1996;DHT22;38556;47.068;15.408;2022-09-02T14:19:06;25.00;78.60
1996;DHT22;38556;47.068;15.408;2022-09-02T14:21:35;27.90;82.40
1996;DHT22;38556;47.068;15.408;2022-09-02T14:24:04;25.00;79.60
1996;DHT22;38556;47.068;15.408;2022-09-02T14:26:35;25.30;80.70
1996;DHT22;38556;47.068;15.408;2022-09-02T14:29:05;25.50;77.90
1996;DHT22;38556;47.068;15.408;2022-09-02T14:31:33;25.60;79.70
1996;DHT22;38556;47.068;15.408;2022-09-02T14:34:03;25.40;80.50
1996;DHT22;38556;47.068;15.408;2022-09-02T14:36:34;25.40;83.50
1996;DHT22;38556;47.068;15.408;2022-09-02T14:39:13;25.50;79.20
1996;DHT22;38556;47.068;15.408;2022-09-02T14:41:46;26.10;82.20
1996;DHT22;38556;47.068;15.408;2022-09-02T14:44:17;26.10;81.90
1996;DHT22;38556;47.068;15.408;2022-09-02T14:46:49;26.60;82.90
1996;DHT22;38556;47.068;15.408;2022-09-02T14:49:19;26.70;81.30
1996;DHT22;38556;47.068;15.408;2022-09-02T14:51:50;26.50;78.20
1996;DHT22;38556;47.068;15.408;2022-09-02T14:54:37;26.30;78.90
1996;DHT22;38556;47.068;15.408;2022-09-02T14:57:07;26.40;79.90
1996;DHT22;38556;47.068;15.408;2022-09-02T14:59:44;26.80;84.00
1996;DHT22;38556;47.068;15.408;2022-09-02T15:02:21;27.50;81.90
1996;DHT22;38556;47.068;15.408;2022-09-02T15:04:48;27.50;76.70
1996;DHT22;38556;47.068;15.408;2022-09-02T15:07:16;28.10;76.50
1996;DHT22;38556;47.068;15.408;2022-09-02T15:09:45;29.20;78.30
1996;DHT22;38556;47.068;15.408;2022-09-02T15:12:17;28.30;78.30
1996;DHT22;38556;47.068;15.408;2022-09-02T15:14:45;27.90;75.90
1996;DHT22;38556;47.068;15.408;2022-09-02T15:17:14;27.50;75.70
1996;DHT22;38556;47.068;15.408;2022-09-02T15:19:41;27.60;79.40
1996;DHT22;38556;47.068;15.408;2022-09-02T15:22:09;27.40;78.20
1996;DHT22;38556;47.068;15.408;2022-09-02T15:24:36;26.80;78.10
1996;DHT22;38556;47.068;15.408;2022-09-02T15:27:05;26.60;79.40
1996;DHT22;38556;47.068;15.408;2022-09-02T15:29:32;26.50;80.60
1996;DHT22;38556;47.068;15.408;2022-09-02T15:32:00;25.80;79.90
1996;DHT22;38556;47.068;15.408;2022-09-02T15:34:28;26.00;80.60
1996;DHT22;38556;47.068;15.408;2022-09-02T15:36:56;25.90;79.50
1996;DHT22;38556;47.068;15.408;2022-09-02T15:39:24;26.00;80.90
1996;DHT22;38556;47.068;15.408;2022-09-02T15:41:52;26.30;81.40
1996;DHT22;38556;47.068;15.408;2022-09-02T15:44:21;26.00;81.50
1996;DHT22;38556;47.068;15.408;2022-09-02T15:46:52;26.00;81.30
1996;DHT22;38556;47.068;15.408;2022-09-02T15:49:20;26.30;80.90
1996;DHT22;38556;47.068;15.408;2022-09-02T15:51:50;30.10;83.50
1996;DHT22;38556;47.068;15.408;2022-09-02T15:54:20;27.10;82.00
1996;DHT22;38556;47.068;15.408;2022-09-02T15:56:53;26.40;79.50
1996;DHT22;38556;47.068;15.408;2022-09-02T15:59:22;26.20;81.90
1996;DHT22;38556;47.068;15.408;2022-09-02T16:01:53;26.00;82.80
1996;DHT22;38556;47.068;15.408;2022-09-02T16:04:21;26.50;82.00
1996;DHT22;38556;47.068;15.408;2022-09-02T16:06:50;26.60;79.80
1996;DHT22;38556;47.068;15.408;2022-09-02T16:09:18;26.10;80.00
1996;DHT22;38556;47.068;15.408;2022-09-02T16:11:47;26.10;80.80
1996;DHT22;38556;47.068;15.408;2022-09-02T16:14:16;26.40;81.80
1996;DHT22;38556;47.068;15.408;2022-09-02T16:16:45;26.30;82.40
1996;DHT22;38556;47.068;15.408;2022-09-02T16:19:14;26.30;80.30
1996;DHT22;38556;47.068;15.408;2022-09-02T16:21:44;26.20;82.30
1996;DHT22;38556;47.068;15.408;2022-09-02T16:26:40;26.50;81.20
1996;DHT22;38556;47.068;15.408;2022-09-02T16:31:37;26.10;80.60
1996;DHT22;38556;47.068;15.408;2022-09-02T16:34:07;26.30;81.20
1996;DHT22;38556;47.068;15.408;2022-09-02T16:36:37;26.80;79.50
1996;DHT22;38556;47.068;15.408;2022-09-02T16:39:05;26.30;81.20
1996;DHT22;38556;47.068;15.408;2022-09-02T16:41:35;26.00;78.90
1996;DHT22;38556;47.068;15.408;2022-09-02T16:44:03;25.80;80.50